Time;durP1;ratioP1;P1;durP2;ratioP2;P2;SDS_P1;SDS_P2;PMS_P1;PMS_P2;Temp;Humidity;BMP_temperature;BMP_pressure;BME280_temperature;BME280_humidity;BME280_pressure;Samples;Min_cycle;Max_cycle;Signal;HPM_P1;HPM_P2
2023/05/01 00:02:13;;;;;;;8.27;7.00;;;10.90;99.90;;;;;;5023206;28;20193;-70
2023/05/01 00:04:38;;;;;;;11.43;6.70;;;10.90;99.90;;;;;;5021644;28;20275;-70
2023/05/01 00:07:04;;;;;;;8.67;7.87;;;11.00;99.90;;;;;;5024451;28;20228;-70
2023/05/01 00:09:31;;;;;;;9.60;7.80;;;11.00;99.90;;;;;;5023715;28;20219;-70
2023/05/01 00:11:56;;;;;;;8.02;6.80;;;10.70;99.90;;;;;;5021912;28;20237;-70
2023/05/01 00:14:22;;;;;;;9.30;8.40;;;10.90;99.90;;;;;;5023110;28;20213;-70
2023/05/01 00:16:48;;;;;;;7.10;6.40;;;10.90;99.90;;;;;;5023169;28;20181;-70
2023/05/01 00:19:17;;;;;;;7.67;6.90;;;10.90;99.90;;;;;;5023342;28;21152;-71
2023/05/01 00:21:44;;;;;;;8.40;7.60;;;11.00;99.90;;;;;;5029442;28;20173;-70
2023/05/01 00:24:10;;;;;;;8.45;7.65;;;11.00;99.90;;;;;;5025202;28;20573;-70
2023/05/01 00:26:35;;;;;;;8.13;7.33;;;10.90;99.90;;;;;;5026127;28;20280;-70
2023/05/01 00:29:01;;;;;;;7.50;6.90;;;11.00;99.90;;;;;;5026239;28;20571;-70
2023/05/01 00:31:27;;;;;;;8.15;7.35;;;11.10;99.90;;;;;;5024337;28;20673;-70
2023/05/01 00:33:53;;;;;;;7.00;6.50;;;11.00;99.90;;;;;;5022809;28;20238;-70
2023/05/01 00:36:19;;;;;;;7.17;6.53;;;11.10;99.90;;;;;;5028352;28;20239;-70
2023/05/01 00:38:45;;;;;;;7.30;6.70;;;10.80;99.90;;;;;;5024231;28;20207;-70
2023/05/01 00:41:11;;;;;;;8.23;7.35;;;10.90;99.90;;;;;;5024113;28;20422;-70
2023/05/01 00:43:36;;;;;;;7.70;7.00;;;10.80;99.90;;;;;;5024139;28;20270;-69
2023/05/01 00:46:02;;;;;;;8.60;6.77;;;10.80;99.90;;;;;;5025760;28;20530;-69
2023/05/01 00:48:28;;;;;;;8.40;7.50;;;10.90;99.90;;;;;;5025828;28;20232;-69
2023/05/01 00:50:55;;;;;;;9.43;7.80;;;10.70;99.90;;;;;;5022836;28;20214;-70
2023/05/01 00:53:23;;;;;;;7.82;7.03;;;10.80;99.90;;;;;;5021775;28;20264;-70
2023/05/01 00:55:49;;;;;;;6.95;6.22;;;10.80;99.90;;;;;;5025339;28;20228;-69
2023/05/01 00:58:17;;;;;;;7.38;6.70;;;10.50;99.90;;;;;;5025036;28;20193;-69
2023/05/01 01:00:43;;;;;;;8.95;6.95;;;10.60;99.90;;;;;;5024386;28;20209;-70
2023/05/01 01:03:09;;;;;;;7.40;6.70;;;10.50;99.90;;;;;;5030796;28;20514;-70
2023/05/01 01:05:55;;;;;;;7.30;6.70;;;10.70;99.90;;;;;;5029997;28;20951;-70
2023/05/01 01:08:30;;;;;;;7.32;6.63;;;10.50;99.90;;;;;;5032630;28;20446;-70
2023/05/01 01:11:16;;;;;;;7.00;6.30;;;10.50;99.90;;;;;;5027097;28;20214;-69
2023/05/01 01:13:51;;;;;;;7.25;6.35;;;10.40;99.90;;;;;;5028905;28;20689;-69
2023/05/01 01:16:29;;;;;;;7.72;7.03;;;10.40;99.90;;;;;;5026788;28;20307;-70
2023/05/01 01:19:21;;;;;;;7.70;6.90;;;10.50;99.90;;;;;;5023162;28;20195;-69
2023/05/01 01:21:50;;;;;;;8.10;7.30;;;10.40;99.90;;;;;;5014898;28;20220;-70
2023/05/01 01:24:49;;;;;;;8.43;7.25;;;10.40;99.90;;;;;;5028994;28;20208;-70
2023/05/01 01:27:19;;;;;;;8.07;7.38;;;10.50;99.90;;;;;;5027615;28;20189;-68
2023/05/01 01:29:50;;;;;;;7.28;6.68;;;10.30;99.90;;;;;;5029811;28;20212;-70
2023/05/01 01:32:43;;;;;;;7.78;6.97;;;10.30;99.90;;;;;;5021813;28;20192;-70
2023/05/01 01:35:18;;;;;;;6.93;6.32;;;10.40;99.90;;;;;;5028884;28;20596;-69
2023/05/01 01:38:05;;;;;;;7.40;6.70;;;10.50;99.90;;;;;;5028452;28;20293;-69
2023/05/01 01:40:37;;;;;;;7.18;6.50;;;10.40;99.90;;;;;;5023575;28;20834;-70
2023/05/01 01:43:06;;;;;;;8.65;7.10;;;10.40;99.90;;;;;;5029808;28;20197;-69
2023/05/01 01:45:45;;;;;;;7.43;6.70;;;10.40;99.90;;;;;;5026614;28;20180;-70
2023/05/01 01:48:14;;;;;;;7.20;6.60;;;10.80;99.90;;;;;;5026181;28;20189;-70
2023/05/01 01:50:42;;;;;;;7.80;7.00;;;10.70;99.90;;;;;;5027407;28;20270;-70
2023/05/01 01:53:10;;;;;;;8.70;7.22;;;10.60;99.90;;;;;;5027990;28;20658;-71
2023/05/01 01:55:38;;;;;;;8.65;7.40;;;10.50;99.90;;;;;;5024343;28;20183;-69
2023/05/01 01:58:07;;;;;;;7.63;6.93;;;10.20;99.90;;;;;;5027571;28;20195;-69
2023/05/01 02:00:34;;;;;;;7.03;6.38;;;10.40;99.90;;;;;;5025707;28;20700;-69
2023/05/01 02:03:02;;;;;;;7.43;6.72;;;10.70;99.90;;;;;;5025653;28;20677;-69
2023/05/01 02:05:30;;;;;;;7.07;6.47;;;10.40;99.90;;;;;;5025445;28;20200;-69
2023/05/01 02:07:57;;;;;;;7.47;6.70;;;10.60;99.90;;;;;;5028565;28;20190;-69
2023/05/01 02:10:24;;;;;;;6.90;6.30;;;10.60;99.90;;;;;;5028844;28;20583;-69
2023/05/01 02:12:51;;;;;;;6.68;6.07;;;10.80;99.90;;;;;;5029073;28;20213;-69
2023/05/01 02:15:18;;;;;;;7.72;6.93;;;10.80;99.90;;;;;;5026199;28;20673;-69
2023/05/01 02:17:44;;;;;;;6.95;6.35;;;10.50;99.90;;;;;;5029683;28;20532;-69
2023/05/01 02:20:11;;;;;;;7.40;6.70;;;10.70;99.90;;;;;;5027984;28;20209;-70
2023/05/01 02:22:41;;;;;;;8.00;7.20;;;10.60;99.90;;;;;;5026961;28;20682;-69
2023/05/01 02:25:10;;;;;;;9.88;7.68;;;10.50;99.90;;;;;;5026732;28;20176;-69
2023/05/01 02:27:59;;;;;;;7.85;7.07;;;10.70;99.90;;;;;;5028767;28;20231;-69
2023/05/01 02:30:24;;;;;;;8.25;6.72;;;10.80;99.90;;;;;;5026237;28;20214;-69
2023/05/01 02:32:50;;;;;;;11.10;7.40;;;10.40;99.90;;;;;;5031101;28;20205;-69
2023/05/01 02:35:16;;;;;;;7.30;6.60;;;10.60;99.90;;;;;;5024018;28;20526;-69
2023/05/01 02:37:43;;;;;;;8.07;7.45;;;10.30;99.90;;;;;;5027456;28;20216;-69
2023/05/01 02:40:11;;;;;;;8.00;7.22;;;10.50;99.90;;;;;;5023466;28;20205;-69
2023/05/01 02:42:38;;;;;;;8.02;7.22;;;10.50;99.90;;;;;;5027046;28;20275;-69
2023/05/01 02:45:06;;;;;;;7.57;6.72;;;10.50;99.90;;;;;;5022535;28;20183;-69
2023/05/01 02:47:36;;;;;;;7.40;6.80;;;10.60;99.90;;;;;;5029094;28;20268;-69
2023/05/01 02:50:02;;;;;;;7.82;7.00;;;10.60;99.90;;;;;;5022818;28;20209;-69
2023/05/01 02:52:28;;;;;;;7.32;6.65;;;10.80;99.90;;;;;;5026607;28;20226;-69
2023/05/01 02:54:55;;;;;;;7.95;7.15;;;10.60;99.90;;;;;;5029386;28;20212;-69
2023/05/01 02:57:21;;;;;;;7.10;6.40;;;10.60;99.90;;;;;;5028667;28;20261;-69
2023/05/01 02:59:47;;;;;;;7.72;6.95;;;10.90;99.90;;;;;;5022639;28;20232;-69
2023/05/01 03:02:14;;;;;;;8.77;6.93;;;11.20;99.90;;;;;;5023700;28;20674;-70
2023/05/01 03:04:40;;;;;;;6.72;6.15;;;10.80;99.90;;;;;;5026032;28;20185;-69
2023/05/01 03:07:07;;;;;;;11.63;7.82;;;10.70;99.90;;;;;;5027727;28;20189;-69
2023/05/01 03:09:32;;;;;;;8.13;7.32;;;10.70;99.90;;;;;;5023096;28;20204;-69
2023/05/01 03:11:58;;;;;;;6.87;6.30;;;10.70;99.90;;;;;;5030483;28;20235;-69
2023/05/01 03:14:24;;;;;;;8.33;7.47;;;10.90;99.90;;;;;;5025110;28;20235;-69
2023/05/01 03:16:49;;;;;;;8.20;7.40;;;10.70;99.90;;;;;;5019907;28;20209;-69
2023/05/01 03:19:15;;;;;;;7.63;6.93;;;10.60;99.90;;;;;;5021932;28;20464;-69
2023/05/01 03:21:40;;;;;;;8.07;6.53;;;10.60;99.90;;;;;;5027116;28;20185;-70
2023/05/01 03:24:06;;;;;;;7.70;6.90;;;10.70;99.90;;;;;;5026179;28;20734;-70
2023/05/01 03:26:32;;;;;;;8.27;6.95;;;10.70;99.90;;;;;;5027375;28;20206;-69
2023/05/01 03:28:58;;;;;;;8.50;7.07;;;10.80;99.90;;;;;;5026578;28;20295;-69
2023/05/01 03:31:24;;;;;;;7.40;6.67;;;10.60;99.90;;;;;;5026298;28;20318;-69
2023/05/01 03:33:49;;;;;;;7.63;6.93;;;10.80;99.90;;;;;;5024627;28;20699;-69
2023/05/01 03:36:15;;;;;;;7.90;6.50;;;10.90;99.90;;;;;;5030056;28;20189;-69
2023/05/01 03:38:41;;;;;;;7.90;6.97;;;10.90;99.90;;;;;;5024368;28;20186;-69
2023/05/01 03:41:07;;;;;;;7.67;6.97;;;10.60;99.90;;;;;;5026800;28;20259;-69
2023/05/01 03:43:33;;;;;;;8.52;7.65;;;10.70;99.90;;;;;;5023173;28;20220;-69
2023/05/01 03:45:58;;;;;;;7.63;6.80;;;10.60;99.90;;;;;;5025535;28;20215;-69
2023/05/01 03:48:24;;;;;;;7.57;6.43;;;10.70;99.90;;;;;;5028333;28;20677;-69
2023/05/01 03:50:52;;;;;;;8.40;6.90;;;10.80;99.90;;;;;;5027668;28;20238;-69
2023/05/01 03:53:18;;;;;;;7.57;6.68;;;10.70;99.90;;;;;;5027702;28;20258;-69
2023/05/01 03:55:44;;;;;;;7.53;6.80;;;10.80;99.90;;;;;;5028274;28;20212;-69
2023/05/01 03:58:09;;;;;;;7.50;6.70;;;10.70;99.90;;;;;;5023005;28;20192;-69
2023/05/01 04:00:36;;;;;;;8.50;7.10;;;10.90;99.90;;;;;;5022097;28;20691;-69
2023/05/01 04:03:02;;;;;;;8.85;7.75;;;10.80;99.90;;;;;;5020881;28;20660;-69
2023/05/01 04:05:29;;;;;;;8.07;7.32;;;11.00;99.90;;;;;;5022179;28;20192;-69
2023/05/01 04:07:55;;;;;;;8.00;7.30;;;11.00;99.90;;;;;;5029783;28;20189;-69
2023/05/01 04:10:21;;;;;;;8.40;7.60;;;10.70;99.90;;;;;;5025438;28;20239;-69
2023/05/01 04:12:46;;;;;;;8.27;7.43;;;10.80;99.90;;;;;;5018188;28;20295;-69
2023/05/01 04:15:12;;;;;;;9.83;8.83;;;10.80;99.90;;;;;;5022687;28;20187;-69
2023/05/01 04:17:38;;;;;;;7.78;7.05;;;10.80;99.90;;;;;;5023309;28;20241;-69
2023/05/01 04:20:05;;;;;;;7.78;6.57;;;11.00;99.90;;;;;;5023276;28;20215;-69
2023/05/01 04:22:31;;;;;;;7.38;6.75;;;10.80;99.90;;;;;;5020063;28;20180;-70
2023/05/01 04:24:56;;;;;;;7.90;7.10;;;10.70;99.90;;;;;;5018964;28;20232;-69
2023/05/01 04:27:22;;;;;;;7.60;6.90;;;10.80;99.90;;;;;;5024323;28;20186;-70
2023/05/01 04:29:48;;;;;;;8.20;7.50;;;10.80;99.90;;;;;;5022126;28;20706;-69
2023/05/01 04:32:14;;;;;;;8.20;7.40;;;10.80;99.90;;;;;;5022962;28;20283;-69
2023/05/01 04:34:39;;;;;;;7.90;7.20;;;11.00;99.90;;;;;;5023713;28;20751;-69
2023/05/01 04:37:07;;;;;;;9.07;8.20;;;11.10;99.90;;;;;;5028819;28;20452;-69
2023/05/01 04:39:33;;;;;;;7.50;6.72;;;11.10;99.90;;;;;;5024762;28;20207;-69
2023/05/01 04:41:59;;;;;;;7.97;7.27;;;10.90;99.90;;;;;;5027504;28;20259;-68
2023/05/01 04:44:25;;;;;;;8.50;7.60;;;10.90;99.90;;;;;;5026875;28;20484;-68
2023/05/01 04:46:50;;;;;;;8.07;7.27;;;10.90;99.90;;;;;;5029128;28;20720;-69
2023/05/01 04:49:16;;;;;;;9.07;7.83;;;10.90;99.90;;;;;;5029537;28;20213;-69
2023/05/01 04:51:42;;;;;;;10.10;7.73;;;10.90;99.90;;;;;;5028576;28;20186;-69
2023/05/01 04:54:07;;;;;;;12.07;8.00;;;11.00;99.90;;;;;;5030040;28;20682;-68
2023/05/01 04:56:33;;;;;;;7.73;6.93;;;11.10;99.90;;;;;;5027258;28;20178;-68
2023/05/01 04:58:58;;;;;;;7.70;7.00;;;11.20;99.90;;;;;;5029568;28;20207;-68
2023/05/01 05:01:24;;;;;;;8.30;7.60;;;11.30;99.90;;;;;;5022338;28;20189;-69
2023/05/01 05:03:50;;;;;;;7.90;7.10;;;11.30;99.90;;;;;;5032173;28;20760;-68
2023/05/01 05:06:15;;;;;;;8.07;7.33;;;11.30;99.90;;;;;;5029234;28;20621;-68
2023/05/01 05:08:41;;;;;;;8.80;8.00;;;11.30;99.90;;;;;;5024807;28;20177;-71
2023/05/01 05:11:07;;;;;;;8.47;7.67;;;11.20;99.90;;;;;;5021999;28;20185;-60
2023/05/01 05:13:32;;;;;;;9.37;7.87;;;11.20;99.90;;;;;;5025496;28;21048;-59
2023/05/01 05:15:58;;;;;;;9.63;8.07;;;11.10;99.90;;;;;;5023150;28;20197;-60
2023/05/01 05:18:23;;;;;;;9.37;7.13;;;11.50;99.90;;;;;;5024706;28;20189;-59
2023/05/01 05:20:49;;;;;;;8.87;8.07;;;11.40;99.90;;;;;;5022428;28;20732;-60
2023/05/01 05:23:15;;;;;;;8.90;8.00;;;11.30;99.90;;;;;;5022817;28;20193;-59
2023/05/01 05:25:40;;;;;;;7.90;7.17;;;11.20;99.90;;;;;;5020403;28;20654;-60
2023/05/01 05:28:06;;;;;;;7.97;7.27;;;11.30;99.90;;;;;;5022935;28;20673;-60
2023/05/01 05:30:32;;;;;;;25.93;19.67;;;11.20;99.90;;;;;;5019420;28;20287;-59
2023/05/01 05:32:57;;;;;;;11.00;7.87;;;10.90;99.90;;;;;;5026284;28;21273;-59
2023/05/01 05:35:23;;;;;;;8.07;7.33;;;11.40;99.90;;;;;;5027109;28;20202;-59
2023/05/01 05:37:49;;;;;;;8.20;7.40;;;11.40;99.90;;;;;;5022009;28;20182;-59
2023/05/01 05:40:15;;;;;;;8.90;7.60;;;11.60;99.90;;;;;;5017659;28;20200;-59
2023/05/01 05:42:40;;;;;;;8.90;8.10;;;11.30;99.90;;;;;;5022496;28;20224;-59
2023/05/01 05:45:07;;;;;;;9.47;8.10;;;11.50;99.90;;;;;;5024479;28;20216;-59
2023/05/01 05:47:32;;;;;;;9.07;8.15;;;11.40;99.90;;;;;;5024809;28;21851;-59
2023/05/01 05:49:58;;;;;;;9.70;8.53;;;11.70;99.90;;;;;;5022616;28;20215;-59
2023/05/01 05:52:23;;;;;;;9.00;8.13;;;11.60;99.90;;;;;;5016490;28;20201;-57
2023/05/01 05:54:49;;;;;;;8.53;7.83;;;11.60;99.90;;;;;;5025298;28;20663;-58
2023/05/01 05:57:14;;;;;;;9.87;8.87;;;11.60;99.90;;;;;;5021847;28;20197;-57
2023/05/01 05:59:40;;;;;;;8.67;7.83;;;11.50;99.90;;;;;;5022021;28;20216;-57
2023/05/01 06:02:06;;;;;;;9.90;8.60;;;11.50;99.90;;;;;;5022733;28;20589;-61
2023/05/01 06:04:32;;;;;;;9.43;8.52;;;11.30;99.90;;;;;;5025237;28;20407;-58
2023/05/01 06:06:59;;;;;;;7.97;7.27;;;11.30;99.90;;;;;;5023839;28;20647;-58
2023/05/01 06:09:25;;;;;;;11.00;8.88;;;11.30;99.90;;;;;;5021387;28;20292;-59
2023/05/01 06:11:50;;;;;;;9.55;8.65;;;11.50;99.90;;;;;;5026740;28;20273;-58
2023/05/01 06:14:16;;;;;;;11.13;8.50;;;11.40;99.90;;;;;;5022859;28;20299;-58
2023/05/01 06:16:42;;;;;;;10.10;9.13;;;11.70;99.90;;;;;;5020475;28;20632;-58
2023/05/01 06:19:09;;;;;;;8.43;7.67;;;11.70;99.90;;;;;;5023307;28;20464;-58
2023/05/01 06:21:35;;;;;;;9.50;8.65;;;11.90;99.90;;;;;;5020162;28;20278;-60
2023/05/01 06:24:00;;;;;;;9.30;8.43;;;11.80;99.90;;;;;;5017510;28;20269;-62
2023/05/01 06:26:27;;;;;;;10.57;9.43;;;12.00;99.90;;;;;;5022581;28;20351;-62
2023/05/01 06:28:53;;;;;;;10.38;9.38;;;12.00;99.90;;;;;;5025517;28;20186;-59
2023/05/01 06:31:19;;;;;;;9.75;8.85;;;11.90;99.90;;;;;;5022403;28;20193;-60
2023/05/01 06:33:45;;;;;;;9.27;8.37;;;12.00;99.90;;;;;;5025084;28;20296;-60
2023/05/01 06:36:10;;;;;;;9.80;8.90;;;11.90;99.90;;;;;;5023522;28;20539;-57
2023/05/01 06:38:36;;;;;;;9.83;8.83;;;12.20;99.90;;;;;;5024467;28;20265;-60
2023/05/01 06:41:03;;;;;;;9.53;8.63;;;12.30;99.90;;;;;;5016614;28;20254;-59
2023/05/01 06:43:30;;;;;;;9.90;8.90;;;12.40;99.90;;;;;;5018766;28;20332;-60
2023/05/01 06:45:56;;;;;;;9.27;8.38;;;12.50;99.90;;;;;;5018034;28;20605;-74
2023/05/01 06:48:22;;;;;;;9.13;7.97;;;12.50;99.90;;;;;;5024299;28;20188;-74
2023/05/01 06:50:47;;;;;;;9.20;8.30;;;12.30;99.90;;;;;;5027598;28;20712;-76
2023/05/01 06:53:13;;;;;;;10.43;9.47;;;12.40;99.90;;;;;;5029458;28;20495;-76
2023/05/01 06:55:38;;;;;;;8.77;7.97;;;12.40;99.90;;;;;;5021442;28;20190;-69
2023/05/01 06:58:05;;;;;;;9.27;8.27;;;12.30;99.90;;;;;;5023920;28;20197;-71
2023/05/01 07:00:31;;;;;;;8.63;7.82;;;12.60;99.90;;;;;;5018985;28;20217;-70
2023/05/01 07:02:56;;;;;;;9.90;8.85;;;12.80;99.90;;;;;;5017120;28;20226;-71
2023/05/01 07:05:22;;;;;;;9.17;8.37;;;12.70;99.90;;;;;;5018221;28;20209;-71
2023/05/01 07:07:48;;;;;;;11.00;7.90;;;12.70;99.90;;;;;;5019956;28;20581;-72
2023/05/01 07:10:14;;;;;;;8.63;7.73;;;12.80;99.90;;;;;;5017984;28;20202;-70
2023/05/01 07:12:40;;;;;;;8.43;7.63;;;12.90;99.90;;;;;;5018155;28;21017;-70
2023/05/01 07:15:06;;;;;;;8.52;6.90;;;13.00;99.90;;;;;;5022738;28;20300;-72
2023/05/01 07:17:33;;;;;;;8.90;8.10;;;13.30;99.90;;;;;;5022626;28;20546;-73
2023/05/01 07:19:59;;;;;;;7.57;6.95;;;13.20;99.90;;;;;;5012514;28;20206;-73
2023/05/01 07:22:25;;;;;;;7.32;6.68;;;13.40;99.90;;;;;;5019650;28;20209;-68
2023/05/01 07:24:51;;;;;;;8.20;7.50;;;13.60;99.90;;;;;;5028453;28;20186;-66
2023/05/01 07:27:16;;;;;;;8.47;7.67;;;13.40;99.90;;;;;;5025562;28;20197;-76
2023/05/01 07:29:43;;;;;;;7.20;6.50;;;13.80;99.90;;;;;;5020963;28;20680;-77
2023/05/01 07:32:09;;;;;;;7.25;6.65;;;13.90;99.90;;;;;;5021232;28;20194;-77
2023/05/01 07:34:34;;;;;;;6.90;6.40;;;13.80;99.90;;;;;;5025776;28;20603;-78
2023/05/01 07:37:00;;;;;;;7.03;6.43;;;13.90;99.90;;;;;;5023097;28;20185;-77
2023/05/01 07:39:26;;;;;;;7.47;6.88;;;14.30;99.90;;;;;;5020741;28;20209;-79
2023/05/01 07:41:51;;;;;;;7.87;7.17;;;14.70;99.90;;;;;;5025193;28;20185;-79
2023/05/01 07:44:17;;;;;;;7.17;6.40;;;14.60;99.90;;;;;;5028526;28;20194;-80
2023/05/01 07:46:43;;;;;;;6.70;6.20;;;15.00;99.90;;;;;;5017698;28;20740;-78
2023/05/01 07:49:08;;;;;;;7.80;6.60;;;14.90;99.60;;;;;;5021950;28;20764;-71
2023/05/01 07:51:34;;;;;;;7.07;6.57;;;15.50;99.30;;;;;;5021111;28;20212;-73
2023/05/01 07:54:03;;;;;;;7.30;6.70;;;15.40;98.90;;;;;;5021686;28;20217;-68
2023/05/01 07:56:30;;;;;;;8.40;6.95;;;14.90;99.10;;;;;;5026453;28;20523;-68
2023/05/01 07:58:56;;;;;;;7.68;7.05;;;14.90;99.60;;;;;;5024175;28;20202;-71
2023/05/01 08:01:22;;;;;;;6.97;6.45;;;15.00;99.80;;;;;;5019343;28;20213;-71
2023/05/01 08:03:48;;;;;;;7.70;7.05;;;14.90;99.80;;;;;;5021699;28;20672;-69
2023/05/01 08:06:13;;;;;;;7.50;6.80;;;15.40;99.00;;;;;;5016552;28;20452;-74
2023/05/01 08:08:39;;;;;;;8.10;7.30;;;14.90;98.50;;;;;;5022645;28;20433;-74
2023/05/01 08:11:05;;;;;;;8.00;7.22;;;13.90;98.70;;;;;;5025213;28;20239;-74
2023/05/01 08:13:31;;;;;;;8.43;7.40;;;14.50;99.80;;;;;;5027298;28;20755;-74
2023/05/01 08:16:01;;;;;;;6.97;6.47;;;14.70;99.90;;;;;;5021951;28;20210;-74
2023/05/01 08:18:27;;;;;;;7.03;6.43;;;14.70;99.80;;;;;;5023546;28;20191;-74
2023/05/01 08:20:52;;;;;;;9.87;7.50;;;14.90;99.10;;;;;;5022101;28;20400;-74
2023/05/01 08:23:18;;;;;;;7.20;6.53;;;15.20;99.10;;;;;;5020340;28;20660;-74
2023/05/01 08:25:45;;;;;;;7.33;6.73;;;15.10;99.00;;;;;;5026348;28;20282;-74
2023/05/01 08:28:13;;;;;;;7.47;6.78;;;14.90;98.90;;;;;;5028247;28;20291;-74
2023/05/01 08:30:38;;;;;;;7.85;6.97;;;15.40;98.90;;;;;;5025119;28;20205;-74
2023/05/01 08:33:04;;;;;;;7.40;6.70;;;15.40;98.60;;;;;;5028066;28;20190;-75
2023/05/01 08:35:30;;;;;;;7.10;6.50;;;15.80;98.30;;;;;;5030782;28;20620;-74
2023/05/01 08:37:56;;;;;;;7.87;7.10;;;16.20;97.70;;;;;;5027848;28;20441;-74
2023/05/01 08:40:24;;;;;;;7.10;6.50;;;16.40;97.00;;;;;;5022714;28;20209;-72
2023/05/01 08:42:50;;;;;;;7.35;6.75;;;16.50;96.70;;;;;;5027441;28;20605;-72
2023/05/01 08:45:18;;;;;;;6.93;6.35;;;16.60;96.90;;;;;;5028164;28;20468;-72
2023/05/01 08:47:45;;;;;;;7.60;6.90;;;16.80;96.20;;;;;;5027213;28;20217;-72
2023/05/01 08:50:13;;;;;;;6.80;6.20;;;17.30;95.50;;;;;;5025283;28;20657;-73
2023/05/01 08:52:42;;;;;;;7.00;6.30;;;17.70;95.30;;;;;;5024408;28;20198;-72
2023/05/01 08:55:14;;;;;;;7.05;6.47;;;18.20;94.40;;;;;;5025940;28;20296;-72
2023/05/01 08:57:45;;;;;;;6.18;5.78;;;18.40;93.20;;;;;;5029391;28;20179;-72
2023/05/01 09:00:17;;;;;;;6.70;6.18;;;18.10;93.60;;;;;;5024159;28;20203;-72
2023/05/01 09:02:44;;;;;;;7.07;6.47;;;18.20;93.00;;;;;;5027550;28;20277;-71
2023/05/01 09:05:10;;;;;;;6.25;5.82;;;18.10;92.90;;;;;;5025477;28;20686;-71
2023/05/01 09:07:37;;;;;;;6.15;5.65;;;18.30;92.80;;;;;;5029176;28;20212;-71
2023/05/01 09:10:03;;;;;;;6.60;6.05;;;18.80;92.50;;;;;;5023018;28;20209;-71
2023/05/01 09:12:34;;;;;;;6.47;5.97;;;18.90;92.50;;;;;;5025148;28;20226;-71
2023/05/01 09:15:01;;;;;;;6.25;5.65;;;19.00;91.60;;;;;;5024601;28;20288;-71
2023/05/01 09:17:29;;;;;;;5.70;5.20;;;18.90;91.60;;;;;;5041384;28;20290;-71
2023/05/01 09:19:55;;;;;;;5.72;5.32;;;19.00;91.40;;;;;;5026314;28;20677;-71
2023/05/01 09:22:21;;;;;;;6.60;5.87;;;18.90;91.20;;;;;;5027353;28;20273;-71
2023/05/01 09:24:47;;;;;;;5.63;5.13;;;19.30;91.00;;;;;;5024494;28;20555;-71
2023/05/01 09:27:13;;;;;;;6.47;4.90;;;19.50;90.30;;;;;;5026816;28;20563;-71
2023/05/01 09:29:40;;;;;;;6.53;5.80;;;19.40;90.20;;;;;;5025510;28;20459;-71
2023/05/01 09:32:16;;;;;;;6.30;5.80;;;19.70;90.40;;;;;;5022000;28;20196;-72
2023/05/01 09:34:48;;;;;;;5.72;5.10;;;19.60;88.90;;;;;;5022948;28;20683;-72
2023/05/01 09:37:48;;;;;;;5.70;5.20;;;19.00;90.00;;;;;;5021732;28;20190;-72
2023/05/01 09:40:13;;;;;;;5.88;5.30;;;19.10;90.20;;;;;;5011321;28;20210;-71
2023/05/01 09:42:50;;;;;;;4.90;4.50;;;19.90;89.40;;;;;;5026655;28;20908;-72
2023/05/01 09:45:17;;;;;;;5.25;4.85;;;20.60;85.90;;;;;;5024385;28;20521;-71
2023/05/01 09:47:44;;;;;;;7.33;6.00;;;21.70;83.10;;;;;;5025845;28;20178;-68
2023/05/01 09:50:33;;;;;;;7.30;6.70;;;22.00;81.80;;;;;;5022242;28;21036;-69
2023/05/01 09:53:05;;;;;;;6.13;5.73;;;22.60;80.10;;;;;;5026432;28;20453;-68
2023/05/01 09:55:30;;;;;;;6.90;6.27;;;22.30;79.70;;;;;;5023945;28;20679;-69
2023/05/01 09:57:57;;;;;;;7.27;6.77;;;22.00;80.80;;;;;;5023346;28;21309;-69
2023/05/01 10:00:24;;;;;;;7.60;7.00;;;21.60;81.80;;;;;;5019160;28;20210;-69
2023/05/01 10:02:50;;;;;;;8.38;7.78;;;21.30;83.50;;;;;;5024893;28;20200;-69
2023/05/01 10:05:16;;;;;;;8.03;7.43;;;20.80;85.00;;;;;;5022272;28;20193;-69
2023/05/01 10:07:56;;;;;;;7.40;6.90;;;20.70;86.20;;;;;;5018197;28;20768;-69
2023/05/01 10:10:22;;;;;;;8.05;7.38;;;20.30;85.90;;;;;;5025194;28;20213;-68
2023/05/01 10:12:48;;;;;;;8.55;7.80;;;19.70;87.90;;;;;;5024556;28;20294;-68
2023/05/01 10:15:15;;;;;;;8.20;7.40;;;19.40;89.90;;;;;;5019677;28;20228;-69
2023/05/01 10:17:42;;;;;;;9.27;8.48;;;19.20;90.40;;;;;;5025504;28;20182;-69
2023/05/01 10:20:11;;;;;;;8.48;7.78;;;19.10;90.70;;;;;;5023148;28;20699;-68
2023/05/01 10:22:38;;;;;;;7.35;6.75;;;19.00;90.90;;;;;;5027606;28;20609;-69
2023/05/01 10:25:08;;;;;;;7.80;7.20;;;19.00;91.30;;;;;;5028149;28;20190;-69
2023/05/01 10:27:35;;;;;;;8.13;7.40;;;18.90;90.70;;;;;;5026250;28;20540;-69
2023/05/01 10:30:05;;;;;;;7.75;7.15;;;19.00;91.10;;;;;;5023564;28;20260;-69
2023/05/01 10:32:31;;;;;;;7.90;7.20;;;19.80;91.20;;;;;;5025212;28;20197;-69
2023/05/01 10:35:02;;;;;;;8.25;7.45;;;19.60;90.00;;;;;;5030151;28;20248;-69
2023/05/01 10:37:38;;;;;;;7.40;6.70;;;19.50;88.50;;;;;;5025405;28;20224;-69
2023/05/01 10:40:41;;;;;;;8.13;7.43;;;19.60;88.30;;;;;;5023279;28;20202;-69
2023/05/01 10:43:24;;;;;;;8.52;7.82;;;19.50;88.20;;;;;;5022878;28;20182;-69
2023/05/01 10:45:51;;;;;;;8.82;8.18;;;19.60;90.00;;;;;;5024202;28;20197;-69
2023/05/01 10:48:41;;;;;;;8.77;7.88;;;19.10;90.00;;;;;;5021802;28;20182;-69
2023/05/01 10:51:10;;;;;;;7.63;6.93;;;19.20;90.10;;;;;;5018799;28;20199;-67
2023/05/01 10:53:38;;;;;;;7.90;7.18;;;19.80;90.10;;;;;;5020394;28;20221;-68
2023/05/01 10:56:05;;;;;;;7.85;7.20;;;19.10;90.00;;;;;;5023357;28;20681;-68
2023/05/01 10:58:36;;;;;;;8.55;7.85;;;19.20;90.10;;;;;;5029709;28;20182;-67
2023/05/01 11:01:27;;;;;;;8.30;7.60;;;19.60;89.80;;;;;;5016830;28;20183;-68
2023/05/01 11:03:53;;;;;;;7.57;6.85;;;19.20;90.20;;;;;;5025468;28;20627;-67
2023/05/01 11:06:19;;;;;;;8.13;7.32;;;19.10;90.00;;;;;;5021183;28;20264;-70
2023/05/01 11:08:46;;;;;;;7.90;7.20;;;19.40;90.20;;;;;;5022947;28;20217;-70
2023/05/01 11:11:20;;;;;;;8.68;7.88;;;19.40;90.40;;;;;;5026026;28;20174;-69
2023/05/01 11:14:04;;;;;;;8.35;7.55;;;18.90;90.50;;;;;;5020959;28;20206;-69
2023/05/01 11:16:36;;;;;;;8.13;7.43;;;19.00;90.50;;;;;;5016553;28;20265;-70
2023/05/01 11:19:06;;;;;;;8.43;7.63;;;18.90;90.50;;;;;;5021441;28;20854;-72
2023/05/01 11:21:33;;;;;;;7.95;7.35;;;18.90;90.00;;;;;;5020961;28;20178;-67
2023/05/01 11:24:02;;;;;;;8.30;7.70;;;18.70;90.10;;;;;;5019653;28;20286;-71
2023/05/01 11:26:29;;;;;;;9.00;8.30;;;18.60;90.30;;;;;;5022039;28;20183;-65
2023/05/01 11:28:57;;;;;;;8.02;7.22;;;18.60;90.40;;;;;;5024745;28;20567;-65
2023/05/01 11:31:27;;;;;;;7.88;7.18;;;18.70;90.40;;;;;;5019008;28;20271;-65
2023/05/01 11:34:00;;;;;;;8.60;7.90;;;18.60;90.40;;;;;;5018739;28;20304;-69
2023/05/01 11:36:27;;;;;;;8.27;7.57;;;19.00;90.80;;;;;;5020090;28;20285;-69
2023/05/01 11:38:58;;;;;;;8.05;7.35;;;18.60;90.70;;;;;;5025100;28;20218;-69
2023/05/01 11:41:25;;;;;;;8.30;7.68;;;18.90;91.00;;;;;;5022185;28;20182;-69
2023/05/01 11:43:53;;;;;;;8.70;8.00;;;18.70;90.60;;;;;;5022656;28;20200;-69
2023/05/01 11:46:32;;;;;;;8.60;7.80;;;18.60;90.70;;;;;;5022361;28;20517;-69
2023/05/01 11:49:03;;;;;;;8.55;7.75;;;18.50;91.10;;;;;;5026291;28;20208;-69
2023/05/01 11:51:30;;;;;;;8.45;7.75;;;18.70;91.10;;;;;;5026909;28;20193;-69
2023/05/01 11:54:00;;;;;;;8.27;7.57;;;18.70;91.30;;;;;;5022884;28;20233;-69
2023/05/01 11:56:28;;;;;;;8.75;8.05;;;18.80;91.00;;;;;;5019257;28;20206;-69
2023/05/01 11:58:54;;;;;;;9.57;8.68;;;19.10;91.40;;;;;;5022785;28;20181;-69
2023/05/01 12:01:20;;;;;;;8.77;7.90;;;18.80;91.00;;;;;;5022563;28;20217;-69
2023/05/01 12:03:46;;;;;;;9.10;8.30;;;19.00;90.80;;;;;;5019289;28;20616;-69
2023/05/01 12:06:12;;;;;;;8.70;7.90;;;19.10;90.50;;;;;;5019115;28;20448;-69
2023/05/01 12:08:49;;;;;;;8.23;7.53;;;19.20;90.40;;;;;;5015752;28;20717;-69
2023/05/01 12:11:15;;;;;;;8.73;8.02;;;19.50;90.50;;;;;;5019905;28;20204;-69
2023/05/01 12:13:41;;;;;;;8.23;7.53;;;19.20;90.40;;;;;;5021195;28;20729;-69
2023/05/01 12:16:08;;;;;;;7.50;6.80;;;19.10;91.00;;;;;;5023000;28;20451;-69
2023/05/01 12:18:34;;;;;;;7.75;7.13;;;19.10;90.60;;;;;;5024276;28;20455;-69
2023/05/01 12:21:00;;;;;;;8.07;7.47;;;19.10;90.50;;;;;;5024830;28;20214;-69
2023/05/01 12:23:34;;;;;;;8.40;7.70;;;19.20;90.50;;;;;;5019899;28;20560;-69
2023/05/01 12:26:02;;;;;;;8.93;8.13;;;19.20;90.50;;;;;;5023575;28;20257;-69
2023/05/01 12:28:28;;;;;;;8.10;7.40;;;18.90;90.60;;;;;;5018508;28;20209;-69
2023/05/01 12:31:01;;;;;;;8.60;7.87;;;19.00;90.80;;;;;;5018483;28;20209;-69
2023/05/01 12:33:26;;;;;;;7.93;7.32;;;19.50;90.70;;;;;;5023414;28;20583;-68
2023/05/01 12:35:52;;;;;;;8.10;7.40;;;19.30;90.50;;;;;;5018501;28;20269;-69
2023/05/01 12:38:22;;;;;;;7.87;7.17;;;19.30;90.10;;;;;;5023337;28;20698;-69
2023/05/01 12:40:53;;;;;;;8.48;7.78;;;19.50;90.00;;;;;;5024697;28;20248;-69
2023/05/01 12:43:32;;;;;;;8.10;7.50;;;19.80;89.50;;;;;;5023112;28;20198;-69
2023/05/01 12:45:59;;;;;;;8.32;7.53;;;20.00;89.10;;;;;;5023249;28;20539;-69
2023/05/01 12:48:25;;;;;;;7.55;7.05;;;20.30;88.70;;;;;;5022666;28;20565;-69
2023/05/01 12:50:54;;;;;;;8.48;7.88;;;20.50;86.60;;;;;;5018922;28;20210;-69